[source: ADDS]
METAR
EDMA 201850Z 07006KT CAVOK 10/04 Q1005 RMK ATIS CHA =
TAF
SR / SS: 04:15 / 18:18 UTC (Referenz EDMA 2014-04-21)
Start Werde Pilot bei uns.

PostHeaderIcon Werde Pilot bei uns auf der Irpfel.

Wollen Sie Ihren Traum vom Fliegen Wirklichkeit werden lassen?

Heben Sie mit uns ab und geniessen Sie dieses unbeschreibliche Gefühl bei einem Flug über die Schwäbische Alb und das Algäu; sei es bei einem Schnupperflug oder als Flugschüler in der Pilotenausbildung. Fliegen bei uns auf der Irpfel bei der Fliegergruppe Giengen/Brz. e. V. es ist ein Erlebnis

- schauen Sie vorbei, wir freuen uns auf Sie -

Die wichtigsten Informationen für das fliegerisch Handwerk finden Sie in unserem Leitfaden für Flieger viel Spass beim stöbern und lesen wünscht die Fliegergruppe.